createdAt,value
2019-02-16T00:02:05.350Z,101306.97
2019-02-16T00:04:11.651Z,101310.12
2019-02-16T00:06:17.866Z,101307.22
2019-02-16T00:08:24.095Z,101310.81
2019-02-16T00:10:30.536Z,101304.35
2019-02-16T00:12:37.074Z,101304.35
2019-02-16T00:14:43.440Z,101303.86
2019-02-16T00:16:49.708Z,101309.45
2019-02-16T00:18:55.996Z,101308.06
2019-02-16T00:21:04.284Z,101310.41
2019-02-16T00:23:10.259Z,101316.13
2019-02-16T00:25:16.907Z,101308.69
2019-02-16T00:27:23.267Z,101303.37
2019-02-16T00:29:29.558Z,101303.04
2019-02-16T00:31:35.900Z,101300.70
2019-02-16T00:33:42.268Z,101304.63
2019-02-16T00:35:48.570Z,101302.63
2019-02-16T00:37:54.906Z,101304.54
2019-02-16T00:40:01.204Z,101301.92
2019-02-16T00:42:07.577Z,101311.49
2019-02-16T00:44:13.901Z,101310.51
2019-02-16T00:46:20.425Z,101306.01
2019-02-16T00:48:26.721Z,101303.71
2019-02-16T00:50:33.046Z,101303.14
2019-02-16T00:52:39.266Z,101298.50
2019-02-16T00:54:45.749Z,101300.87
2019-02-16T00:56:51.989Z,101301.36
2019-02-16T00:58:58.359Z,101302.84
2019-02-16T01:01:04.650Z,101293.03
2019-02-16T01:03:10.968Z,101299.13
2019-02-16T01:05:17.341Z,101286.54
2019-02-16T01:07:23.705Z,101290.82
2019-02-16T01:09:30.087Z,101292.13
2019-02-16T01:11:36.395Z,101290.05
2019-02-16T01:13:42.634Z,101292.11
2019-02-16T01:15:48.901Z,101284.66
2019-02-16T01:17:55.240Z,101286.54
2019-02-16T01:20:01.421Z,101286.48
2019-02-16T01:22:07.684Z,101280.41
2019-02-16T01:24:13.987Z,101283.92
2019-02-16T01:26:20.156Z,101285.50
2019-02-16T01:28:26.427Z,101283.30
2019-02-16T01:30:32.678Z,101278.20
2019-02-16T01:32:38.987Z,101265.96
2019-02-16T01:34:45.167Z,101273.32
2019-02-16T01:36:51.405Z,101268.41
2019-02-16T01:38:57.640Z,101265.55
2019-02-16T01:41:03.915Z,101259.88
2019-02-16T01:43:10.141Z,101256.80
2019-02-16T01:45:16.511Z,101253.83
2019-02-16T01:47:22.742Z,101248.27
2019-02-16T01:49:28.974Z,101245.03
2019-02-16T01:51:35.139Z,101253.20
2019-02-16T01:53:41.322Z,101252.22
2019-02-16T01:55:47.652Z,101246.01
2019-02-16T01:57:54.017Z,101240.94
2019-02-16T02:00:00.339Z,101239.79
2019-02-16T02:02:06.584Z,101240.37
2019-02-16T02:04:12.832Z,101241.27
2019-02-16T02:06:19.090Z,101240.37
2019-02-16T02:08:25.532Z,101237.17
2019-02-16T02:10:31.911Z,101236.19
2019-02-16T02:12:38.226Z,101239.30
2019-02-16T02:14:44.545Z,101237.77
2019-02-16T02:16:50.854Z,101246.11
2019-02-16T02:18:57.055Z,101248.02
2019-02-16T02:21:03.365Z,101248.83
2019-02-16T02:23:09.543Z,101240.48
2019-02-16T02:25:15.739Z,101240.15
2019-02-16T02:27:22.041Z,101242.12
2019-02-16T02:29:28.215Z,101237.70
2019-02-16T02:31:34.403Z,101239.50
2019-02-16T02:33:40.620Z,101231.90
2019-02-16T02:35:46.856Z,101239.34
2019-02-16T02:37:54.153Z,101230.67
2019-02-16T02:40:00.420Z,101230.91
2019-02-16T02:42:06.622Z,101234.53
2019-02-16T02:44:12.867Z,101235.52
2019-02-16T02:46:19.039Z,101235.02
2019-02-16T02:48:25.255Z,101232.06
2019-02-16T02:50:31.517Z,101233.95
2019-02-16T02:52:38.703Z,101230.78
2019-02-16T02:54:45.196Z,101231.59
2019-02-16T02:56:52.438Z,101233.95
2019-02-16T02:58:58.599Z,101230.20
2019-02-16T03:01:04.755Z,101229.39
2019-02-16T03:03:12.000Z,101234.04
2019-02-16T03:05:18.230Z,101232.32
2019-02-16T03:07:24.520Z,101235.26
2019-02-16T03:09:30.862Z,101227.25
2019-02-16T03:11:37.151Z,101229.54
2019-02-16T03:13:43.315Z,101229.80
2019-02-16T03:15:49.493Z,101228.40
2019-02-16T03:17:55.683Z,101229.63
2019-02-16T03:20:02.032Z,101229.63
2019-02-16T03:22:08.565Z,101232.81
2019-02-16T03:24:14.904Z,101231.59
2019-02-16T03:26:31.825Z,101229.47
2019-02-16T03:28:57.487Z,101235.56
2019-02-16T03:31:36.763Z,101234.42
2019-02-16T03:33:59.715Z,101231.32
2019-02-16T03:36:31.993Z,101228.81
2019-02-16T03:38:54.874Z,101233.70
2019-02-16T03:41:01.200Z,101229.77
2019-02-16T03:43:07.371Z,101222.51
2019-02-16T03:45:13.536Z,101220.06
2019-02-16T03:47:19.855Z,101218.27
2019-02-16T03:49:26.096Z,101214.34
2019-02-16T03:51:32.272Z,101212.71
2019-02-16T03:53:38.456Z,101211.08
2019-02-16T03:55:44.745Z,101210.72
2019-02-16T03:57:50.913Z,101217.26
2019-02-16T03:59:57.187Z,101216.40
2019-02-16T04:02:03.489Z,101213.12
2019-02-16T04:04:09.878Z,101212.14
2019-02-16T04:06:16.056Z,101209.11
2019-02-16T04:08:22.291Z,101202.73
2019-02-16T04:10:28.454Z,101207.38
2019-02-16T04:12:34.724Z,101209.44
2019-02-16T04:14:41.055Z,101211.47
2019-02-16T04:16:47.220Z,101207.23
2019-02-16T04:18:53.549Z,101207.23
2019-02-16T04:20:59.843Z,101203.22
2019-02-16T04:23:06.072Z,101204.53
2019-02-16T04:25:12.279Z,101207.55
2019-02-16T04:27:18.496Z,101204.61
2019-02-16T04:29:24.749Z,101202.58
2019-02-16T04:31:31.084Z,101196.77
2019-02-16T04:33:37.343Z,101200.77
2019-02-16T04:35:43.501Z,101196.13
2019-02-16T04:37:49.899Z,101198.83
2019-02-16T04:39:56.100Z,101190.90
2019-02-16T04:42:02.389Z,101200.95
2019-02-16T04:44:08.771Z,101199.25
2019-02-16T04:46:14.935Z,101197.05
2019-02-16T04:48:21.178Z,101204.22
2019-02-16T04:50:27.500Z,101202.73
2019-02-16T04:52:35.066Z,101198.33
2019-02-16T04:54:41.583Z,101199.63
2019-02-16T04:56:48.217Z,101198.34
2019-02-16T04:58:54.532Z,101195.23
2019-02-16T05:01:00.905Z,101197.03
2019-02-16T05:03:07.248Z,101193.43
2019-02-16T05:05:13.618Z,101196.05
2019-02-16T05:07:19.833Z,101195.87
2019-02-16T05:09:26.095Z,101183.62
2019-02-16T05:11:32.319Z,101183.70
2019-02-16T05:13:38.478Z,101186.00
2019-02-16T05:15:44.738Z,101182.08
2019-02-16T05:17:50.897Z,101194.73
2019-02-16T05:19:57.129Z,101191.14
2019-02-16T05:22:03.586Z,101193.75
2019-02-16T05:24:09.813Z,101190.64
2019-02-16T05:26:15.971Z,101190.33
2019-02-16T05:28:22.288Z,101188.85
2019-02-16T05:30:28.555Z,101191.38
2019-02-16T05:32:34.766Z,101186.23
2019-02-16T05:34:40.980Z,101194.08
2019-02-16T05:36:47.201Z,101190.97
2019-02-16T05:38:54.507Z,101199.44
2019-02-16T05:41:00.696Z,101196.83
2019-02-16T05:43:06.923Z,101202.14
2019-02-16T05:45:13.144Z,101205.97
2019-02-16T05:47:19.399Z,101204.34
2019-02-16T05:49:25.738Z,101207.59
2019-02-16T05:51:32.071Z,101206.37
2019-02-16T05:53:38.390Z,101205.56
2019-02-16T05:55:44.630Z,101205.08
2019-02-16T05:57:50.945Z,101208.23
2019-02-16T05:59:57.241Z,101210.84
2019-02-16T06:02:03.673Z,101205.47
2019-02-16T06:04:09.895Z,101208.14
2019-02-16T06:06:16.135Z,101214.12
2019-02-16T06:08:22.304Z,101213.63
2019-02-16T06:10:28.591Z,101209.04
2019-02-16T06:12:34.833Z,101214.84
2019-02-16T06:14:41.199Z,101212.91
2019-02-16T06:16:47.434Z,101220.34
2019-02-16T06:18:53.774Z,101221.33
2019-02-16T06:21:01.880Z,101218.85
2019-02-16T06:23:08.002Z,101219.08
2019-02-16T06:25:14.385Z,101221.88
2019-02-16T06:27:20.610Z,101220.07
2019-02-16T06:29:26.988Z,101224.08
2019-02-16T06:31:33.302Z,101217.72
2019-02-16T06:33:39.550Z,101216.69
2019-02-16T06:35:47.483Z,101224.52
2019-02-16T06:37:53.734Z,101215.11
2019-02-16T06:40:00.028Z,101220.02
2019-02-16T06:42:06.193Z,101220.11
2019-02-16T06:44:12.583Z,101224.12
2019-02-16T06:46:18.738Z,101219.87
2019-02-16T06:48:24.966Z,101225.42
2019-02-16T06:50:36.870Z,101226.81
2019-02-16T06:52:39.136Z,101223.71
2019-02-16T06:54:45.385Z,101223.08
2019-02-16T06:57:05.331Z,101225.34
2019-02-16T06:59:11.576Z,101225.06
2019-02-16T07:01:18.064Z,101231.28
2019-02-16T07:03:24.258Z,101229.48
2019-02-16T07:05:30.477Z,101227.45
2019-02-16T07:07:36.812Z,101228.84
2019-02-16T07:09:43.135Z,101229.89
2019-02-16T07:11:49.357Z,101228.84
2019-02-16T07:13:55.513Z,101230.16
2019-02-16T07:16:19.461Z,101229.39
2019-02-16T07:18:27.270Z,101232.09
2019-02-16T07:20:33.423Z,101220.74
2019-02-16T07:22:39.706Z,101233.89
2019-02-16T07:24:45.851Z,101232.41
2019-02-16T07:26:52.144Z,101234.30
2019-02-16T07:28:58.342Z,101231.86
2019-02-16T07:31:04.497Z,101230.16
2019-02-16T07:33:10.731Z,101226.09
2019-02-16T07:35:16.935Z,101226.91
2019-02-16T07:37:23.237Z,101231.48
2019-02-16T07:39:29.400Z,101236.22
2019-02-16T07:41:35.652Z,101238.08
2019-02-16T07:43:46.179Z,101235.38
2019-02-16T07:45:54.120Z,101234.16
2019-02-16T07:48:01.950Z,101237.18
2019-02-16T07:50:12.533Z,101241.50
2019-02-16T07:52:23.674Z,101233.21
2019-02-16T07:54:43.515Z,101236.05
2019-02-16T07:56:51.350Z,101229.56
2019-02-16T07:58:59.221Z,101229.25
2019-02-16T08:01:07.118Z,101230.23
2019-02-16T08:03:14.978Z,101230.73
2019-02-16T08:05:22.899Z,101231.32
2019-02-16T08:07:30.995Z,101226.83
2019-02-16T08:09:55.140Z,101232.98
2019-02-16T08:12:05.612Z,101237.81
2019-02-16T08:14:29.623Z,101238.53
2019-02-16T08:16:41.529Z,101237.32
2019-02-16T08:19:05.685Z,101237.50
2019-02-16T08:21:13.584Z,101232.12
2019-02-16T08:23:40.416Z,101237.94
2019-02-16T08:25:47.278Z,101235.75
2019-02-16T08:27:55.085Z,101228.14
2019-02-16T08:30:03.108Z,101233.13
2019-02-16T08:32:19.820Z,101231.02
2019-02-16T08:34:28.831Z,101225.29
2019-02-16T08:36:39.542Z,101224.73
2019-02-16T08:38:56.127Z,101225.63
2019-02-16T08:41:09.743Z,101234.27
2019-02-16T08:43:26.671Z,101229.71
2019-02-16T08:45:35.370Z,101224.48
2019-02-16T08:47:43.337Z,101221.38
2019-02-16T08:50:03.502Z,101225.84
2019-02-16T08:52:21.459Z,101219.97
2019-02-16T08:54:27.402Z,101223.98
2019-02-16T08:56:44.213Z,101214.10
2019-02-16T08:58:57.649Z,101216.89
2019-02-16T09:01:21.718Z,101208.06
2019-02-16T09:03:27.722Z,101204.38
2019-02-16T09:05:41.519Z,101201.03
2019-02-16T09:07:49.361Z,101204.20
2019-02-16T09:10:09.414Z,101198.73
2019-02-16T09:12:33.658Z,101199.23
2019-02-16T09:14:50.467Z,101192.20
2019-02-16T09:17:01.062Z,101198.59
2019-02-16T09:19:20.691Z,101204.85
2019-02-16T09:21:43.772Z,101206.25
2019-02-16T09:23:59.138Z,101215.41
2019-02-16T09:26:19.080Z,101214.10
2019-02-16T09:28:35.694Z,101213.03
2019-02-16T09:30:45.634Z,101211.75
2019-02-16T09:32:53.554Z,101216.80
2019-02-16T09:35:07.469Z,101219.08
2019-02-16T09:37:21.248Z,101218.59
2019-02-16T09:39:29.055Z,101219.48
2019-02-16T09:41:36.864Z,101215.07
2019-02-16T09:44:02.852Z,101206.67
2019-02-16T09:46:23.602Z,101210.59
2019-02-16T09:48:40.526Z,101211.08
2019-02-16T09:50:51.248Z,101210.18
2019-02-16T09:53:07.669Z,101203.39
2019-02-16T09:55:13.634Z,101206.50
2019-02-16T09:57:25.428Z,101204.27
2019-02-16T09:59:33.293Z,101203.22
2019-02-16T10:01:43.654Z,101195.21
2019-02-16T10:03:51.522Z,101201.98
2019-02-16T10:05:59.386Z,101199.37
2019-02-16T10:08:07.326Z,101193.70
2019-02-16T10:10:20.625Z,101186.08
2019-02-16T10:12:44.647Z,101185.59
2019-02-16T10:14:55.516Z,101179.13
2019-02-16T10:17:10.076Z,101180.27
2019-02-16T10:19:31.364Z,101178.55
2019-02-16T10:21:45.162Z,101180.84
2019-02-16T10:23:56.200Z,101177.73
2019-02-16T10:26:02.192Z,101179.98
2019-02-16T10:28:23.158Z,101177.82
2019-02-16T10:30:40.071Z,101178.97
2019-02-16T10:33:04.139Z,101180.80
2019-02-16T10:35:14.800Z,101179.29
2019-02-16T10:37:28.811Z,101170.69
2019-02-16T10:39:36.681Z,101170.28
2019-02-16T10:41:45.269Z,101171.75
2019-02-16T10:43:54.400Z,101165.28
2019-02-16T10:46:16.543Z,101163.36
2019-02-16T10:48:24.228Z,101164.23
2019-02-16T10:50:32.120Z,101157.37
2019-02-16T10:52:42.409Z,101151.22
2019-02-16T10:54:50.215Z,101146.67
2019-02-16T10:57:02.226Z,101156.56
2019-02-16T10:59:10.159Z,101154.86
2019-02-16T11:01:20.824Z,101154.89
2019-02-16T11:03:31.419Z,101152.27
2019-02-16T11:05:42.333Z,101153.66
2019-02-16T11:07:53.108Z,101149.55
2019-02-16T11:10:01.028Z,101146.44
2019-02-16T11:12:08.817Z,101149.05
2019-02-16T11:14:33.038Z,101149.41
2019-02-16T11:16:56.296Z,101152.25
2019-02-16T11:19:14.630Z,101148.14
2019-02-16T11:21:25.404Z,101148.66
2019-02-16T11:23:45.561Z,101145.06
2019-02-16T11:25:59.039Z,101140.72
2019-02-16T11:28:19.216Z,101140.61
2019-02-16T11:30:34.015Z,101135.48
2019-02-16T11:32:47.455Z,101134.55
2019-02-16T11:34:58.222Z,101142.19
2019-02-16T11:37:14.971Z,101139.05
2019-02-16T11:39:25.560Z,101140.02
2019-02-16T11:41:34.607Z,101133.80
2019-02-16T11:43:41.834Z,101131.41
2019-02-16T11:45:55.286Z,101129.80
2019-02-16T11:48:12.799Z,101134.48
2019-02-16T11:50:32.541Z,101122.20
2019-02-16T11:52:43.291Z,101131.33
2019-02-16T11:55:06.477Z,101124.78
2019-02-16T11:57:29.388Z,101125.45
2019-02-16T11:59:43.313Z,101123.69
2019-02-16T12:01:51.446Z,101126.09
2019-02-16T12:04:02.096Z,101123.69
2019-02-16T12:06:10.096Z,101123.25
2019-02-16T12:08:18.985Z,101119.39
2019-02-16T12:10:30.328Z,101117.45
2019-02-16T12:12:56.113Z,101114.08
2019-02-16T12:15:13.075Z,101113.44
2019-02-16T12:17:19.006Z,101115.58
2019-02-16T12:19:36.054Z,101117.63
2019-02-16T12:21:46.734Z,101117.22
2019-02-16T12:23:54.621Z,101118.86
2019-02-16T12:26:08.473Z,101120.18
2019-02-16T12:28:16.352Z,101112.95
2019-02-16T12:30:36.205Z,101114.23
2019-02-16T12:32:53.103Z,101120.30
2019-02-16T12:35:13.047Z,101120.70
2019-02-16T12:37:26.409Z,101115.54
2019-02-16T12:39:34.287Z,101114.30
2019-02-16T12:41:44.959Z,101107.97
2019-02-16T12:43:50.951Z,101102.49
2019-02-16T12:45:58.829Z,101105.06
2019-02-16T12:48:06.649Z,101096.00
2019-02-16T12:50:20.296Z,101094.20
2019-02-16T12:52:28.945Z,101091.03
2019-02-16T12:54:54.999Z,101088.32
2019-02-16T12:57:02.871Z,101087.15
2019-02-16T12:59:10.738Z,101084.00
2019-02-16T13:01:33.698Z,101095.67
2019-02-16T13:03:44.175Z,101093.26
2019-02-16T13:06:08.765Z,101087.25
2019-02-16T13:08:55.149Z,101090.89
2019-02-16T13:11:08.947Z,101098.13
2019-02-16T13:13:33.029Z,101098.09
2019-02-16T13:15:40.975Z,101088.30
2019-02-16T13:17:48.840Z,101082.78
2019-02-16T13:19:54.875Z,101085.16
2019-02-16T13:22:02.803Z,101087.92
2019-02-16T13:24:22.946Z,101081.98
2019-02-16T13:26:46.703Z,101079.59
2019-02-16T13:29:06.456Z,101084.64
2019-02-16T13:31:16.930Z,101083.31
2019-02-16T13:33:30.640Z,101095.53
2019-02-16T13:35:47.254Z,101091.31
2019-02-16T13:38:11.122Z,101083.75
2019-02-16T13:40:17.062Z,101078.56
2019-02-16T13:42:28.809Z,101078.97
2019-02-16T13:44:36.607Z,101069.80
2019-02-16T13:46:44.424Z,101068.13
2019-02-16T13:48:55.334Z,101072.28
2019-02-16T13:51:08.915Z,101068.09
2019-02-16T13:53:16.785Z,101061.23
2019-02-16T13:55:33.176Z,101063.45
2019-02-16T13:57:36.925Z,101063.86
2019-02-16T13:59:44.744Z,101063.22
2019-02-16T14:01:50.714Z,101060.19
2019-02-16T14:04:01.435Z,101059.89
2019-02-16T14:06:09.383Z,101047.02
2019-02-16T14:08:17.346Z,101043.84
2019-02-16T14:10:28.118Z,101034.52
2019-02-16T14:12:38.989Z,101034.25
2019-02-16T14:14:46.813Z,101033.09
2019-02-16T14:16:54.686Z,101029.63
2019-02-16T14:19:00.986Z,101020.34
2019-02-16T14:21:07.329Z,101025.58
2019-02-16T14:23:14.139Z,101024.19
2019-02-16T14:25:21.934Z,101012.83
2019-02-16T14:27:28.324Z,101007.92
2019-02-16T14:29:34.526Z,101014.88
2019-02-16T14:31:40.870Z,101007.52
2019-02-16T14:33:47.128Z,101011.03
2019-02-16T14:35:53.791Z,101001.23
2019-02-16T14:38:11.063Z,101004.55
2019-02-16T14:40:17.309Z,101000.14
2019-02-16T14:42:23.528Z,100994.13
2019-02-16T14:44:29.687Z,100987.99
2019-02-16T14:46:36.165Z,100981.86
2019-02-16T14:48:42.387Z,100983.62
2019-02-16T14:50:48.761Z,100982.64
2019-02-16T14:52:55.186Z,100990.34
2019-02-16T14:55:01.531Z,100982.27
2019-02-16T14:57:07.832Z,100982.67
2019-02-16T14:59:14.161Z,100978.27
2019-02-16T15:01:20.395Z,100972.55
2019-02-16T15:03:26.553Z,100974.63
2019-02-16T15:05:32.880Z,100976.84
2019-02-16T15:07:39.284Z,100971.94
2019-02-16T15:09:45.571Z,100976.13
2019-02-16T15:11:51.963Z,100982.36
2019-02-16T15:13:58.339Z,100985.75
2019-02-16T15:16:04.668Z,100978.56
2019-02-16T15:18:10.885Z,100988.88
2019-02-16T15:20:17.955Z,100980.39
2019-02-16T15:22:24.199Z,100987.22
2019-02-16T15:24:32.005Z,100983.88
2019-02-16T15:26:39.344Z,100981.47
2019-02-16T15:28:45.594Z,100977.39
2019-02-16T15:30:51.846Z,100977.08
2019-02-16T15:32:59.302Z,100981.53
2019-02-16T15:35:06.930Z,100981.13
2019-02-16T15:37:15.122Z,100976.52
2019-02-16T15:39:22.532Z,100967.54
2019-02-16T15:41:28.769Z,100969.78
2019-02-16T15:43:35.169Z,100965.45
2019-02-16T15:45:41.429Z,100957.66
2019-02-16T15:47:47.743Z,100957.66
2019-02-16T15:49:54.012Z,100966.34
2019-02-16T15:52:00.377Z,100963.75
2019-02-16T15:54:06.677Z,100952.48
2019-02-16T15:56:13.021Z,100952.51
2019-02-16T15:58:19.375Z,100952.53
2019-02-16T16:00:29.013Z,100949.17
2019-02-16T16:02:35.719Z,100943.08
2019-02-16T16:04:42.117Z,100946.33
2019-02-16T16:06:48.491Z,100943.05
2019-02-16T16:09:02.366Z,100947.30
2019-02-16T16:11:15.959Z,100942.41
2019-02-16T16:13:22.065Z,100934.41
2019-02-16T16:15:41.998Z,100939.39
2019-02-16T16:18:04.544Z,100942.73
2019-02-16T16:20:15.054Z,100937.66
2019-02-16T16:22:22.941Z,100937.52
2019-02-16T16:24:28.931Z,100930.33
2019-02-16T16:26:43.068Z,100928.77
2019-02-16T16:29:00.175Z,100926.56
2019-02-16T16:31:03.297Z,100924.77
2019-02-16T16:33:29.579Z,100925.90
2019-02-16T16:35:36.770Z,100926.21
2019-02-16T16:37:59.173Z,100926.04
2019-02-16T16:40:17.852Z,100917.76
2019-02-16T16:42:23.871Z,100918.97
2019-02-16T16:44:34.700Z,100921.00
2019-02-16T16:46:51.795Z,100918.70
2019-02-16T16:49:19.936Z,100923.42
2019-02-16T16:51:33.888Z,100917.63
2019-02-16T16:53:44.699Z,100920.95
2019-02-16T16:55:55.369Z,100913.80
2019-02-16T16:58:04.108Z,100926.84
2019-02-16T17:00:26.675Z,100919.83
2019-02-16T17:02:50.543Z,100912.81
2019-02-16T17:05:10.089Z,100911.52
2019-02-16T17:07:21.006Z,100903.70
2019-02-16T17:09:29.748Z,100903.92
2019-02-16T17:11:53.738Z,100902.30
2019-02-16T17:14:01.811Z,100900.42
2019-02-16T17:16:07.939Z,100894.16
2019-02-16T17:18:19.650Z,100897.09
2019-02-16T17:20:36.802Z,100891.06
2019-02-16T17:22:47.530Z,100888.45
2019-02-16T17:25:01.744Z,100878.94
2019-02-16T17:27:13.825Z,100881.05
2019-02-16T17:29:37.886Z,100875.98
2019-02-16T17:31:48.919Z,100872.88
2019-02-16T17:34:12.712Z,100873.72
2019-02-16T17:36:37.720Z,100871.26
2019-02-16T17:38:57.520Z,100874.19
2019-02-16T17:41:24.603Z,100867.61
2019-02-16T17:43:35.295Z,100874.53
2019-02-16T17:45:47.319Z,100874.53
2019-02-16T17:48:04.030Z,100876.16
2019-02-16T17:50:12.230Z,100872.56
2019-02-16T17:52:38.549Z,100867.75
2019-02-16T17:54:46.593Z,100855.13
2019-02-16T17:57:12.660Z,100860.66
2019-02-16T17:59:20.597Z,100863.17
2019-02-16T18:01:31.348Z,100852.75
2019-02-16T18:03:39.179Z,100852.34
2019-02-16T18:05:49.524Z,100845.83
2019-02-16T18:08:00.569Z,100844.44
2019-02-16T18:10:08.799Z,100842.59
2019-02-16T18:12:32.925Z,100853.23
2019-02-16T18:14:42.339Z,100848.03
2019-02-16T18:17:06.266Z,100852.25
2019-02-16T18:19:14.215Z,100859.48
2019-02-16T18:21:24.781Z,100856.88
2019-02-16T18:23:40.106Z,100845.47
2019-02-16T18:25:55.377Z,100838.38
2019-02-16T18:28:06.028Z,100840.03
2019-02-16T18:30:18.598Z,100835.22
2019-02-16T18:32:31.401Z,100837.73
2019-02-16T18:34:39.152Z,100829.44
2019-02-16T18:36:55.935Z,100824.05
2019-02-16T18:39:20.862Z,100820.86
2019-02-16T18:41:38.828Z,100822.02
2019-02-16T18:44:03.241Z,100825.83
2019-02-16T18:46:12.691Z,100820.53
2019-02-16T18:48:20.644Z,100816.53
2019-02-16T18:50:43.551Z,100819.05
2019-02-16T18:52:54.444Z,100810.07
2019-02-16T18:55:11.092Z,100814.73
2019-02-16T18:57:21.016Z,100814.33
2019-02-16T18:59:32.894Z,100808.77
2019-02-16T19:01:38.908Z,100813.34
2019-02-16T19:03:51.100Z,100812.45
2019-02-16T19:06:01.642Z,100805.94
2019-02-16T19:08:16.469Z,100806.84
2019-02-16T19:10:32.965Z,100810.92
2019-02-16T19:12:43.872Z,100806.13
2019-02-16T19:15:00.639Z,100805.14
2019-02-16T19:17:08.477Z,100803.83
2019-02-16T19:19:26.812Z,100799.25
2019-02-16T19:21:40.521Z,100795.66
2019-02-16T19:24:03.115Z,100797.81
2019-02-16T19:26:14.562Z,100794.45
2019-02-16T19:28:26.762Z,100800.55
2019-02-16T19:30:34.735Z,100797.64
2019-02-16T19:32:45.241Z,100788.93
2019-02-16T19:35:00.368Z,100792.84
2019-02-16T19:37:23.745Z,100789.73
2019-02-16T19:39:35.689Z,100791.12
2019-02-16T19:41:52.438Z,100789.83
2019-02-16T19:44:00.341Z,100785.92
2019-02-16T19:46:06.409Z,100788.34
2019-02-16T19:48:17.013Z,100789.41
2019-02-16T19:50:24.980Z,100781.92
2019-02-16T19:52:40.377Z,100781.02
2019-02-16T19:54:54.372Z,100778.02
2019-02-16T19:57:06.166Z,100777.02
2019-02-16T19:59:14.116Z,100765.63
2019-02-16T20:01:22.144Z,100769.84
2019-02-16T20:03:32.501Z,100764.09
2019-02-16T20:05:45.228Z,100769.61
2019-02-16T20:07:53.105Z,100769.42
2019-02-16T20:10:13.931Z,100760.86
2019-02-16T20:12:24.457Z,100763.77
2019-02-16T20:14:32.400Z,100756.80
2019-02-16T20:16:56.448Z,100753.70
2019-02-16T20:19:13.078Z,100755.50
2019-02-16T20:21:22.572Z,100749.14
2019-02-16T20:23:41.199Z,100750.77
2019-02-16T20:25:51.828Z,100748.32
2019-02-16T20:28:15.962Z,100750.41
2019-02-16T20:30:28.078Z,100742.73
2019-02-16T20:32:49.015Z,100750.95
2019-02-16T20:34:56.640Z,100751.66
2019-02-16T20:37:08.918Z,100746.86
2019-02-16T20:39:26.681Z,100748.06
2019-02-16T20:41:39.196Z,100743.03
2019-02-16T20:44:03.449Z,100739.34
2019-02-16T20:46:11.389Z,100744.05
2019-02-16T20:48:29.267Z,100740.05
2019-02-16T20:50:53.331Z,100734.36
2019-02-16T20:53:21.264Z,100732.07
2019-02-16T20:55:31.004Z,100729.32
2019-02-16T20:57:47.778Z,100728.83
2019-02-16T20:59:52.608Z,100729.32
2019-02-16T21:02:05.120Z,100729.72
2019-02-16T21:04:27.999Z,100734.18
2019-02-16T21:06:50.563Z,100725.98
2019-02-16T21:09:14.492Z,100725.35
2019-02-16T21:11:38.265Z,100723.83
2019-02-16T21:13:50.541Z,100722.13
2019-02-16T21:16:01.274Z,100715.63
2019-02-16T21:18:13.265Z,100716.21
2019-02-16T21:20:37.056Z,100713.61
2019-02-16T21:23:01.978Z,100707.66
2019-02-16T21:25:26.126Z,100704.03
2019-02-16T21:27:35.340Z,100706.64
2019-02-16T21:29:51.532Z,100706.83
2019-02-16T21:31:59.375Z,100703.46
2019-02-16T21:34:19.206Z,100698.89
2019-02-16T21:36:26.377Z,100702.08
2019-02-16T21:38:39.193Z,100698.75
2019-02-16T21:40:51.246Z,100698.58
2019-02-16T21:43:08.172Z,100697.37
2019-02-16T21:45:31.162Z,100693.73
2019-02-16T21:47:55.334Z,100705.44
2019-02-16T21:50:03.882Z,100703.88
2019-02-16T21:52:12.978Z,100699.70
2019-02-16T21:54:21.511Z,100700.86
2019-02-16T21:56:30.678Z,100702.88
2019-02-16T21:58:47.288Z,100704.41
2019-02-16T22:00:56.641Z,100710.64
2019-02-16T22:03:10.626Z,100700.48
2019-02-16T22:05:16.744Z,100704.70
2019-02-16T22:07:27.804Z,100703.13
2019-02-16T22:09:33.898Z,100705.00
2019-02-16T22:11:44.686Z,100702.44
2019-02-16T22:13:51.066Z,100702.66
2019-02-16T22:15:57.426Z,100695.52
2019-02-16T22:18:03.769Z,100694.93
2019-02-16T22:20:11.871Z,100695.55
2019-02-16T22:22:20.709Z,100691.87
2019-02-16T22:24:28.314Z,100690.17
2019-02-16T22:26:34.676Z,100693.98
2019-02-16T22:28:40.914Z,100684.41
2019-02-16T22:30:47.317Z,100680.42
2019-02-16T22:32:54.576Z,100678.23
2019-02-16T22:35:02.499Z,100669.44
2019-02-16T22:37:09.059Z,100673.83
2019-02-16T22:39:16.861Z,100666.03
2019-02-16T22:41:24.795Z,100663.34
2019-02-16T22:43:31.155Z,100669.75
2019-02-16T22:45:37.544Z,100661.45
2019-02-16T22:47:43.841Z,100670.06
2019-02-16T22:49:50.153Z,100664.05
2019-02-16T22:51:58.149Z,100661.45
2019-02-16T22:54:04.364Z,100659.75
2019-02-16T22:56:10.795Z,100653.84
2019-02-16T22:58:28.255Z,100648.42
2019-02-16T23:00:27.674Z,100650.32
2019-02-16T23:02:35.468Z,100653.74
2019-02-16T23:04:41.682Z,100650.61
2019-02-16T23:06:47.853Z,100647.03
2019-02-16T23:08:54.107Z,100643.03
2019-02-16T23:11:00.287Z,100644.83
2019-02-16T23:13:07.594Z,100639.88
2019-02-16T23:15:14.052Z,100644.77
2019-02-16T23:17:20.441Z,100637.91
2019-02-16T23:19:26.801Z,100629.06
2019-02-16T23:21:33.044Z,100633.40
2019-02-16T23:23:39.203Z,100625.15
2019-02-16T23:25:45.679Z,100620.70
2019-02-16T23:27:52.051Z,100618.08
2019-02-16T23:29:58.287Z,100614.49
2019-02-16T23:32:04.553Z,100620.20
2019-02-16T23:34:10.804Z,100618.37
2019-02-16T23:36:50.538Z,100619.44
2019-02-16T23:38:57.035Z,100613.48
2019-02-16T23:41:03.477Z,100609.17
2019-02-16T23:43:09.788Z,100606.22
2019-02-16T23:45:16.190Z,100601.23
2019-02-16T23:47:22.540Z,100598.41
2019-02-16T23:49:28.701Z,100606.43
2019-02-16T23:51:35.080Z,100606.56
2019-02-16T23:53:41.268Z,100606.42
2019-02-16T23:55:47.505Z,100605.98
2019-02-16T23:57:53.878Z,100612.42
